createdAt,value
2019-03-22T00:01:15.137Z,22.31
2019-03-22T00:03:45.949Z,22.30
2019-03-22T00:06:16.825Z,22.32
2019-03-22T00:08:47.628Z,22.30
2019-03-22T00:11:18.462Z,22.31
2019-03-22T00:13:49.203Z,22.34
2019-03-22T00:16:20.007Z,22.33
2019-03-22T00:18:51.739Z,22.35
2019-03-22T00:21:22.611Z,22.31
2019-03-22T00:23:53.372Z,22.34
2019-03-22T00:26:25.194Z,22.31
2019-03-22T00:28:56.068Z,22.34
2019-03-22T00:31:29.093Z,22.33
2019-03-22T00:34:01.257Z,22.29
2019-03-22T00:36:32.111Z,22.29
2019-03-22T00:39:02.951Z,22.30
2019-03-22T00:41:34.863Z,22.32
2019-03-22T00:44:06.334Z,22.34
2019-03-22T00:46:37.137Z,22.33
2019-03-22T00:49:07.922Z,22.31
2019-03-22T00:51:39.785Z,22.33
2019-03-22T00:54:10.563Z,22.31
2019-03-22T00:56:42.328Z,22.33
2019-03-22T00:59:13.222Z,22.30
2019-03-22T01:01:44.021Z,22.31
2019-03-22T01:04:14.770Z,22.33
2019-03-22T01:06:45.528Z,22.30
2019-03-22T01:09:16.342Z,22.32
2019-03-22T01:11:47.182Z,22.32
2019-03-22T01:14:17.910Z,22.33
2019-03-22T01:16:48.685Z,22.35
2019-03-22T01:19:19.504Z,22.34
2019-03-22T01:21:50.318Z,22.35
2019-03-22T01:24:21.114Z,22.33
2019-03-22T01:26:51.910Z,22.33
2019-03-22T01:29:22.676Z,22.34
2019-03-22T01:31:53.639Z,22.34
2019-03-22T01:34:24.374Z,22.34
2019-03-22T01:36:55.207Z,22.33
2019-03-22T01:39:28.457Z,22.34
2019-03-22T01:41:59.509Z,22.33
2019-03-22T01:44:33.917Z,22.35
2019-03-22T01:47:04.621Z,22.36
2019-03-22T01:49:35.432Z,22.36
2019-03-22T01:52:06.228Z,22.34
2019-03-22T01:54:37.069Z,22.33
2019-03-22T01:57:07.831Z,22.34
2019-03-22T01:59:38.749Z,22.34
2019-03-22T02:02:09.509Z,22.33
2019-03-22T02:04:40.377Z,22.34
2019-03-22T02:07:11.143Z,22.35
2019-03-22T02:09:42.924Z,22.34
2019-03-22T02:12:13.676Z,22.33
2019-03-22T02:14:44.614Z,22.35
2019-03-22T02:17:15.434Z,22.35
2019-03-22T02:19:46.203Z,22.35
2019-03-22T02:22:17.001Z,22.34
2019-03-22T02:24:48.832Z,22.32
2019-03-22T02:27:19.617Z,22.31
2019-03-22T02:29:50.375Z,22.33
2019-03-22T02:32:21.153Z,22.34
2019-03-22T02:34:52.014Z,22.33
2019-03-22T02:37:22.774Z,22.32
2019-03-22T02:39:53.580Z,22.32
2019-03-22T02:42:24.340Z,22.31
2019-03-22T02:44:55.258Z,22.30
2019-03-22T02:47:26.029Z,22.30
2019-03-22T02:49:56.807Z,22.32
2019-03-22T02:52:27.550Z,22.31
2019-03-22T02:54:58.460Z,22.30
2019-03-22T02:57:29.395Z,22.32
2019-03-22T03:00:00.451Z,22.31
2019-03-22T03:02:31.356Z,22.31
2019-03-22T03:05:02.761Z,22.33
2019-03-22T03:07:33.630Z,22.33
2019-03-22T03:10:04.883Z,22.32
2019-03-22T03:12:36.891Z,22.30
2019-03-22T03:15:08.693Z,22.31
2019-03-22T03:17:39.558Z,22.30
2019-03-22T03:20:12.070Z,22.28
2019-03-22T03:22:42.863Z,22.30
2019-03-22T03:25:13.761Z,22.31
2019-03-22T03:27:44.549Z,22.30
2019-03-22T03:30:16.295Z,22.29
2019-03-22T03:32:47.063Z,22.28
2019-03-22T03:35:17.905Z,22.30
2019-03-22T03:37:48.753Z,22.29
2019-03-22T03:40:19.575Z,22.29
2019-03-22T03:42:51.469Z,22.29
2019-03-22T03:45:35.315Z,22.30
2019-03-22T03:48:07.575Z,22.31
2019-03-22T03:50:38.348Z,22.30
2019-03-22T03:53:09.197Z,22.27
2019-03-22T03:55:40.001Z,22.26
2019-03-22T03:58:10.927Z,22.25
2019-03-22T04:00:41.703Z,22.24
2019-03-22T04:03:12.556Z,22.23
2019-03-22T04:05:43.394Z,22.21
2019-03-22T04:08:14.240Z,22.21
2019-03-22T04:10:45.022Z,22.20
2019-03-22T04:13:15.878Z,22.22
2019-03-22T04:15:47.761Z,22.24
2019-03-22T04:18:18.546Z,22.26
2019-03-22T04:20:52.283Z,22.25
2019-03-22T04:23:23.096Z,22.25
2019-03-22T04:25:53.880Z,22.27
2019-03-22T04:28:24.677Z,22.29
2019-03-22T04:30:55.466Z,22.28
2019-03-22T04:33:26.289Z,22.26
2019-03-22T04:35:57.123Z,22.26
2019-03-22T04:38:27.959Z,22.26
2019-03-22T04:40:58.848Z,22.27
2019-03-22T04:43:29.616Z,22.26
2019-03-22T04:46:00.732Z,22.27
2019-03-22T04:48:32.618Z,22.27
2019-03-22T04:51:03.493Z,22.26
2019-03-22T04:53:38.274Z,22.28
2019-03-22T04:56:11.560Z,22.28
2019-03-22T04:58:42.593Z,22.26
2019-03-22T05:01:13.350Z,22.26
2019-03-22T05:03:44.113Z,22.27
2019-03-22T05:06:14.860Z,22.29
2019-03-22T05:08:45.777Z,22.28
2019-03-22T05:11:16.549Z,22.29
2019-03-22T05:13:48.073Z,22.28
2019-03-22T05:16:18.922Z,22.28
2019-03-22T05:18:50.196Z,22.28
2019-03-22T05:21:21.239Z,22.28
2019-03-22T05:23:52.353Z,22.26
2019-03-22T05:26:23.235Z,22.28
2019-03-22T05:28:54.045Z,22.27
2019-03-22T05:32:02.535Z,22.26
2019-03-22T05:34:33.322Z,22.28
2019-03-22T05:37:05.264Z,22.26
2019-03-22T05:39:36.749Z,22.26
2019-03-22T05:42:08.300Z,22.25
2019-03-22T05:44:39.257Z,22.24
2019-03-22T05:47:10.051Z,22.24
2019-03-22T05:49:40.908Z,22.25
2019-03-22T05:52:11.759Z,22.26
2019-03-22T05:54:42.578Z,22.24
2019-03-22T05:57:15.013Z,22.28
2019-03-22T05:59:45.828Z,22.29
2019-03-22T06:02:16.646Z,22.31
2019-03-22T06:04:47.478Z,22.32
2019-03-22T06:07:18.325Z,22.30
2019-03-22T06:09:49.139Z,22.31
2019-03-22T06:12:19.879Z,22.37
2019-03-22T06:14:52.256Z,22.33
2019-03-22T06:17:24.001Z,22.35
2019-03-22T06:19:56.056Z,22.35
2019-03-22T06:22:26.835Z,22.39
2019-03-22T06:24:57.675Z,22.39
2019-03-22T06:27:28.477Z,22.36
2019-03-22T06:29:59.554Z,22.39
2019-03-22T06:32:30.406Z,22.39
2019-03-22T06:35:06.906Z,22.40
2019-03-22T06:37:38.428Z,22.43
2019-03-22T06:40:11.705Z,22.43
2019-03-22T06:42:42.484Z,22.44
2019-03-22T06:45:13.619Z,22.46
2019-03-22T06:47:45.341Z,22.45
2019-03-22T06:50:16.416Z,22.48
2019-03-22T06:52:47.297Z,22.46
2019-03-22T06:55:18.232Z,22.49
2019-03-22T06:57:48.993Z,22.47
2019-03-22T07:00:19.767Z,22.49
2019-03-22T07:02:50.556Z,22.51
2019-03-22T07:05:21.376Z,22.50
2019-03-22T07:07:52.185Z,22.51
2019-03-22T07:10:22.984Z,22.52
2019-03-22T07:12:53.744Z,22.54
2019-03-22T07:15:25.397Z,22.53
2019-03-22T07:17:56.226Z,22.54
2019-03-22T07:20:26.050Z,22.56
2019-03-22T07:22:57.309Z,22.57
2019-03-22T07:25:28.207Z,22.58
2019-03-22T07:27:59.084Z,22.57
2019-03-22T07:30:31.119Z,22.58
2019-03-22T07:33:01.950Z,22.58
2019-03-22T07:35:32.750Z,22.59
2019-03-22T07:38:03.482Z,22.60
2019-03-22T07:40:34.283Z,22.59
2019-03-22T07:43:05.094Z,22.58
2019-03-22T07:45:35.875Z,22.60
2019-03-22T07:48:06.765Z,22.60
2019-03-22T07:50:37.533Z,22.61
2019-03-22T07:53:08.353Z,22.61
2019-03-22T07:55:39.236Z,22.64
2019-03-22T07:58:10.103Z,22.63
2019-03-22T08:00:40.998Z,22.64
2019-03-22T08:03:11.837Z,22.64
2019-03-22T08:05:51.000Z,22.63
2019-03-22T08:08:15.572Z,22.64
2019-03-22T08:10:46.445Z,22.64
2019-03-22T08:13:17.224Z,22.65
2019-03-22T08:15:48.117Z,22.64
2019-03-22T08:18:19.466Z,22.65
2019-03-22T08:20:50.321Z,22.65
2019-03-22T08:23:24.154Z,22.65
2019-03-22T08:25:56.066Z,22.66
2019-03-22T08:28:27.002Z,22.67
2019-03-22T08:30:57.774Z,22.67
2019-03-22T08:33:28.695Z,22.67
2019-03-22T08:35:59.550Z,22.65
2019-03-22T08:38:30.419Z,22.66
2019-03-22T08:41:01.206Z,22.66
2019-03-22T08:43:32.116Z,22.67
2019-03-22T08:46:02.907Z,22.70
2019-03-22T08:48:33.784Z,22.68
2019-03-22T08:51:04.608Z,22.69
2019-03-22T08:53:35.414Z,22.66
2019-03-22T08:56:06.602Z,22.69
2019-03-22T08:58:37.615Z,22.67
2019-03-22T09:01:08.527Z,22.68
2019-03-22T09:03:39.279Z,22.68
2019-03-22T09:06:10.175Z,22.70
2019-03-22T09:08:41.602Z,22.67
2019-03-22T09:11:12.429Z,22.67
2019-03-22T09:13:43.840Z,22.66
2019-03-22T09:16:14.648Z,22.67
2019-03-22T09:18:45.524Z,22.67
2019-03-22T09:21:17.191Z,22.67
2019-03-22T09:23:49.714Z,22.69
2019-03-22T09:26:20.515Z,22.65
2019-03-22T09:28:51.403Z,22.67
2019-03-22T09:31:22.237Z,22.68
2019-03-22T09:33:54.179Z,22.69
2019-03-22T09:36:24.892Z,22.66
2019-03-22T09:38:55.736Z,22.67
2019-03-22T09:41:26.519Z,22.68
2019-03-22T09:43:59.946Z,22.66
2019-03-22T09:46:29.870Z,22.67
2019-03-22T09:49:00.721Z,22.69
2019-03-22T09:51:32.583Z,22.68
2019-03-22T09:54:03.456Z,22.66
2019-03-22T09:56:46.301Z,22.66
2019-03-22T09:59:06.856Z,22.68
2019-03-22T10:01:37.646Z,22.67
2019-03-22T10:04:08.458Z,22.67
2019-03-22T10:06:39.708Z,22.66
2019-03-22T10:09:10.599Z,22.67
2019-03-22T10:11:41.499Z,22.68
2019-03-22T10:14:12.316Z,22.64
2019-03-22T10:16:43.185Z,22.65
2019-03-22T10:19:14.022Z,22.64
2019-03-22T10:21:44.887Z,22.65
2019-03-22T10:24:15.786Z,22.66
2019-03-22T10:26:46.887Z,22.65
2019-03-22T10:29:17.682Z,22.65
2019-03-22T10:31:48.849Z,22.62
2019-03-22T10:34:19.716Z,22.65
2019-03-22T10:36:50.559Z,22.66
2019-03-22T10:39:22.946Z,22.64
2019-03-22T10:41:53.854Z,22.62
2019-03-22T10:44:24.638Z,22.61
2019-03-22T10:46:55.455Z,22.63
2019-03-22T10:49:26.658Z,22.63
2019-03-22T10:51:58.267Z,22.59
2019-03-22T10:54:31.891Z,22.61
2019-03-22T10:57:02.841Z,22.60
2019-03-22T10:59:33.645Z,22.63
2019-03-22T11:02:07.567Z,22.60
2019-03-22T11:04:37.437Z,22.61
2019-03-22T11:07:08.186Z,22.59
2019-03-22T11:09:39.023Z,22.57
2019-03-22T11:12:12.447Z,22.54
2019-03-22T11:14:42.367Z,22.54
2019-03-22T11:17:13.166Z,22.56
2019-03-22T11:19:44.008Z,22.55
2019-03-22T11:22:14.802Z,22.55
2019-03-22T11:24:45.577Z,22.53
2019-03-22T11:27:16.299Z,22.52
2019-03-22T11:29:48.073Z,22.52
2019-03-22T11:32:18.960Z,22.54
2019-03-22T11:34:49.728Z,22.53
2019-03-22T11:37:20.491Z,22.48
2019-03-22T11:39:51.331Z,22.51
2019-03-22T11:42:23.615Z,22.51
2019-03-22T11:44:54.408Z,22.48
2019-03-22T11:47:25.182Z,22.50
2019-03-22T11:49:56.467Z,22.53
2019-03-22T11:52:27.295Z,22.53
2019-03-22T11:54:58.192Z,22.52
2019-03-22T11:57:30.404Z,22.55
2019-03-22T12:00:01.614Z,22.52
2019-03-22T12:02:32.490Z,22.50
2019-03-22T12:05:03.350Z,22.48
2019-03-22T12:07:37.100Z,22.50
2019-03-22T12:10:08.208Z,22.49
2019-03-22T12:12:39.041Z,22.50
2019-03-22T12:15:10.104Z,22.49
2019-03-22T12:17:40.968Z,22.46
2019-03-22T12:20:11.997Z,22.46
2019-03-22T12:22:42.986Z,22.41
2019-03-22T12:25:14.058Z,22.43
2019-03-22T12:27:45.300Z,22.43
2019-03-22T12:30:16.647Z,22.42
2019-03-22T12:32:48.990Z,22.44
2019-03-22T12:35:19.900Z,22.43
2019-03-22T12:37:50.717Z,22.39
2019-03-22T12:40:21.846Z,22.39
2019-03-22T12:42:52.692Z,22.38
2019-03-22T12:45:24.941Z,22.41
2019-03-22T12:47:55.707Z,22.37
2019-03-22T12:50:26.534Z,22.39
2019-03-22T12:52:57.424Z,22.41
2019-03-22T12:55:28.208Z,22.38
2019-03-22T12:57:59.650Z,22.36
2019-03-22T13:00:30.398Z,22.36
2019-03-22T13:03:01.234Z,22.34
2019-03-22T13:05:32.036Z,22.33
2019-03-22T13:08:02.987Z,22.34
2019-03-22T13:10:34.075Z,22.34
2019-03-22T13:13:05.019Z,22.34
2019-03-22T13:15:36.845Z,22.32
2019-03-22T13:18:07.830Z,22.31
2019-03-22T13:20:38.693Z,22.31
2019-03-22T13:23:09.551Z,22.27
2019-03-22T13:25:40.383Z,22.30
2019-03-22T13:28:11.152Z,22.29
2019-03-22T13:30:41.991Z,22.28
2019-03-22T13:33:12.807Z,22.29
2019-03-22T13:35:43.684Z,22.27
2019-03-22T13:38:14.414Z,22.28
2019-03-22T13:40:45.212Z,22.30
2019-03-22T13:43:15.968Z,22.29
2019-03-22T13:45:47.357Z,22.29
2019-03-22T13:48:18.116Z,22.27
2019-03-22T13:50:49.120Z,22.28
2019-03-22T13:53:19.928Z,22.28
2019-03-22T13:55:50.720Z,22.27
2019-03-22T13:58:22.233Z,22.28
2019-03-22T14:00:53.103Z,22.27
2019-03-22T14:03:25.711Z,22.26
2019-03-22T14:05:56.660Z,22.26
2019-03-22T14:08:28.580Z,22.28
2019-03-22T14:10:59.478Z,22.31
2019-03-22T14:13:30.436Z,22.29
2019-03-22T14:16:01.298Z,22.28
2019-03-22T14:18:32.604Z,22.28
2019-03-22T14:21:03.457Z,22.29
2019-03-22T14:23:34.214Z,22.29
2019-03-22T14:26:05.012Z,22.27
2019-03-22T14:28:35.713Z,22.26
2019-03-22T14:31:09.451Z,22.27
2019-03-22T14:33:40.182Z,22.28
2019-03-22T14:36:11.082Z,22.30
2019-03-22T14:38:44.185Z,22.30
2019-03-22T14:41:14.564Z,22.27
2019-03-22T14:43:48.083Z,22.31
2019-03-22T14:46:18.902Z,22.32
2019-03-22T14:48:49.728Z,22.36
2019-03-22T14:51:20.563Z,22.34
2019-03-22T14:53:51.457Z,22.34
2019-03-22T14:56:22.281Z,22.33
2019-03-22T14:58:54.095Z,22.32
2019-03-22T15:01:24.859Z,22.37
2019-03-22T15:03:55.647Z,22.38
2019-03-22T15:06:26.483Z,22.38
2019-03-22T15:08:57.347Z,22.36
2019-03-22T15:11:28.110Z,22.36
2019-03-22T15:14:04.426Z,22.35
2019-03-22T15:17:09.350Z,22.36
2019-03-22T15:20:08.067Z,22.35
2019-03-22T15:22:51.221Z,22.35
2019-03-22T15:25:39.797Z,22.37
2019-03-22T15:28:28.054Z,22.36
2019-03-22T15:31:26.847Z,22.37
2019-03-22T15:34:25.657Z,22.37
2019-03-22T15:37:21.558Z,22.34
2019-03-22T15:40:00.649Z,22.34
2019-03-22T15:42:34.373Z,22.36
2019-03-22T15:45:07.423Z,22.36
2019-03-22T15:47:39.771Z,22.34
2019-03-22T15:50:12.947Z,22.33
2019-03-22T15:52:44.053Z,22.33
2019-03-22T15:55:14.840Z,22.33
2019-03-22T15:57:45.695Z,22.35
2019-03-22T16:00:18.027Z,22.35
2019-03-22T16:02:48.970Z,22.36
2019-03-22T16:05:19.822Z,22.37
2019-03-22T16:07:50.669Z,22.36
2019-03-22T16:10:21.548Z,22.37
2019-03-22T16:12:52.407Z,22.36
2019-03-22T16:15:24.548Z,22.35
2019-03-22T16:17:57.061Z,22.35
2019-03-22T16:20:27.930Z,22.35
2019-03-22T16:22:59.063Z,22.35
2019-03-22T16:25:29.883Z,22.36
2019-03-22T16:28:00.963Z,22.37
2019-03-22T16:30:36.716Z,22.36
2019-03-22T16:33:10.058Z,22.36
2019-03-22T16:35:40.908Z,22.36
2019-03-22T16:38:12.051Z,22.37
2019-03-22T16:40:45.659Z,22.36
2019-03-22T16:43:16.548Z,22.36
2019-03-22T16:45:48.554Z,22.35
2019-03-22T16:48:19.341Z,22.35
2019-03-22T16:50:50.127Z,22.36
2019-03-22T16:53:22.498Z,22.39
2019-03-22T16:55:53.315Z,22.37
2019-03-22T16:58:24.131Z,22.34
2019-03-22T17:00:54.906Z,22.35
2019-03-22T17:03:25.693Z,22.35
2019-03-22T17:05:56.523Z,22.33
2019-03-22T17:08:27.268Z,22.34
2019-03-22T17:10:58.084Z,22.32
2019-03-22T17:13:28.866Z,22.32
2019-03-22T17:16:02.050Z,22.32
2019-03-22T17:18:33.959Z,22.31
2019-03-22T17:21:04.713Z,22.32
2019-03-22T17:23:35.578Z,22.33
2019-03-22T17:26:06.411Z,22.29
2019-03-22T17:28:37.172Z,22.31
2019-03-22T17:31:08.002Z,22.32
2019-03-22T17:33:39.290Z,22.33
2019-03-22T17:36:10.127Z,22.30
2019-03-22T17:38:40.933Z,22.31
2019-03-22T17:41:11.723Z,22.29
2019-03-22T17:43:42.489Z,22.30
2019-03-22T17:46:13.348Z,22.30
2019-03-22T17:48:44.077Z,22.29
2019-03-22T17:51:15.816Z,22.31
2019-03-22T17:53:46.699Z,22.32
2019-03-22T17:56:17.574Z,22.31
2019-03-22T17:58:48.480Z,22.31
2019-03-22T18:01:19.480Z,22.30
2019-03-22T18:03:51.404Z,22.30
2019-03-22T18:06:24.025Z,22.32
2019-03-22T18:08:54.779Z,22.31
2019-03-22T18:11:25.561Z,22.29
2019-03-22T18:13:56.345Z,22.31
2019-03-22T18:16:27.139Z,22.30
2019-03-22T18:18:57.966Z,22.30
2019-03-22T18:21:28.776Z,22.31
2019-03-22T18:23:59.607Z,22.29
2019-03-22T18:26:30.463Z,22.29
2019-03-22T18:29:01.385Z,22.30
2019-03-22T18:31:33.336Z,22.32
2019-03-22T18:34:04.180Z,22.29
2019-03-22T18:36:35.052Z,22.32
2019-03-22T18:39:08.537Z,22.30
2019-03-22T18:41:39.395Z,22.30
2019-03-22T18:44:10.247Z,22.31
2019-03-22T18:46:41.006Z,22.31
2019-03-22T18:49:11.835Z,22.30
2019-03-22T18:51:42.876Z,22.30
2019-03-22T18:54:14.778Z,22.29
2019-03-22T18:56:45.592Z,22.29
2019-03-22T18:59:20.949Z,22.29
2019-03-22T19:01:51.710Z,22.28
2019-03-22T19:04:22.619Z,22.29
2019-03-22T19:06:53.409Z,22.27
2019-03-22T19:09:24.406Z,22.28
2019-03-22T19:11:55.549Z,22.29
2019-03-22T19:14:26.393Z,22.28
2019-03-22T19:16:57.541Z,22.30
2019-03-22T19:19:28.812Z,22.30
2019-03-22T19:21:59.615Z,22.28
2019-03-22T19:24:30.516Z,22.29
2019-03-22T19:27:01.334Z,22.30
2019-03-22T19:29:32.105Z,22.30
2019-03-22T19:32:13.240Z,22.32
2019-03-22T19:34:36.527Z,22.31
2019-03-22T19:37:07.386Z,22.32
2019-03-22T19:39:39.961Z,22.32
2019-03-22T19:42:10.734Z,22.30
2019-03-22T19:44:41.705Z,22.32
2019-03-22T19:47:12.451Z,22.33
2019-03-22T19:49:43.251Z,22.32
2019-03-22T19:52:14.112Z,22.34
2019-03-22T19:54:44.948Z,22.33
2019-03-22T19:57:15.778Z,22.33
2019-03-22T19:59:48.110Z,22.33
2019-03-22T20:02:18.971Z,22.31
2019-03-22T20:04:49.779Z,22.34
2019-03-22T20:07:26.765Z,22.34
2019-03-22T20:09:53.526Z,22.35
2019-03-22T20:12:24.370Z,22.35
2019-03-22T20:14:58.200Z,22.33
2019-03-22T20:17:29.889Z,22.35
2019-03-22T20:20:03.103Z,22.37
2019-03-22T20:22:39.154Z,22.38
2019-03-22T20:25:10.370Z,22.39
2019-03-22T20:27:41.314Z,22.37
2019-03-22T20:30:15.784Z,22.38
2019-03-22T20:32:47.781Z,22.39
2019-03-22T20:35:18.653Z,22.39
2019-03-22T20:37:49.547Z,22.39
2019-03-22T20:40:20.458Z,22.39
2019-03-22T20:42:51.335Z,22.39
2019-03-22T20:45:24.468Z,22.40
2019-03-22T20:47:54.956Z,22.41
2019-03-22T20:50:35.350Z,22.40
2019-03-22T20:53:00.617Z,22.42
2019-03-22T20:55:33.145Z,22.43
2019-03-22T20:58:04.622Z,22.43
2019-03-22T21:00:39.521Z,22.42
2019-03-22T21:03:10.759Z,22.42
2019-03-22T21:05:47.021Z,22.41
2019-03-22T21:08:18.217Z,22.41
2019-03-22T21:10:50.159Z,22.44
2019-03-22T21:13:21.052Z,22.45
2019-03-22T21:15:51.870Z,22.45
2019-03-22T21:18:23.375Z,22.45
2019-03-22T21:20:54.759Z,22.45
2019-03-22T21:23:35.958Z,22.48
2019-03-22T21:26:02.776Z,22.49
2019-03-22T21:28:34.619Z,22.48
2019-03-22T21:31:05.466Z,22.48
2019-03-22T21:33:36.986Z,22.45
2019-03-22T21:36:07.913Z,22.47
2019-03-22T21:38:39.077Z,22.43
2019-03-22T21:41:09.888Z,22.47
2019-03-22T21:43:40.731Z,22.51
2019-03-22T21:46:14.596Z,22.50
2019-03-22T21:48:48.303Z,22.49
2019-03-22T21:51:19.378Z,22.50
2019-03-22T21:53:50.224Z,22.51
2019-03-22T21:56:21.153Z,22.51
2019-03-22T21:58:52.022Z,22.50
2019-03-22T22:01:22.797Z,22.50
2019-03-22T22:03:53.617Z,22.52
2019-03-22T22:06:24.439Z,22.51
2019-03-22T22:08:55.212Z,22.49
2019-03-22T22:11:26.148Z,22.51
2019-03-22T22:13:56.966Z,22.49
2019-03-22T22:16:28.589Z,22.53
2019-03-22T22:18:59.364Z,22.56
2019-03-22T22:21:30.200Z,22.55
2019-03-22T22:24:01.043Z,22.56
2019-03-22T22:26:31.954Z,22.56
2019-03-22T22:29:02.831Z,22.54
2019-03-22T22:31:33.825Z,22.54
2019-03-22T22:34:05.075Z,22.54
2019-03-22T22:36:39.257Z,22.55
2019-03-22T22:39:11.106Z,22.54
2019-03-22T22:41:42.076Z,22.57
2019-03-22T22:44:12.833Z,22.56
2019-03-22T22:46:43.670Z,22.57
2019-03-22T22:49:14.477Z,22.55
2019-03-22T22:51:45.307Z,22.56
2019-03-22T22:54:16.199Z,22.53
2019-03-22T22:56:46.974Z,22.53
2019-03-22T22:59:17.873Z,22.54
2019-03-22T23:01:48.756Z,22.54
2019-03-22T23:04:19.604Z,22.53
2019-03-22T23:06:50.472Z,22.53
2019-03-22T23:09:21.282Z,22.53
2019-03-22T23:11:52.171Z,22.52
2019-03-22T23:14:24.555Z,22.52
2019-03-22T23:16:55.395Z,22.55
2019-03-22T23:19:26.205Z,22.54
2019-03-22T23:21:57.145Z,22.54
2019-03-22T23:24:30.674Z,22.53
2019-03-22T23:27:02.626Z,22.53
2019-03-22T23:29:33.465Z,22.54
2019-03-22T23:32:04.302Z,22.54
2019-03-22T23:34:35.138Z,22.51
2019-03-22T23:37:07.158Z,22.51
2019-03-22T23:39:38.265Z,22.51
2019-03-22T23:42:09.188Z,22.51
2019-03-22T23:44:40.046Z,22.50
2019-03-22T23:47:10.885Z,22.50
2019-03-22T23:49:41.686Z,22.47
2019-03-22T23:52:12.469Z,22.49
2019-03-22T23:54:46.081Z,22.50
2019-03-22T23:57:16.944Z,22.47
2019-03-22T23:59:47.715Z,22.49
